首页
METAR-TAF:

METAR-TAF

机场 :

多倫多皮爾遜國際機場

多伦多, 安大略省, 加拿大

纬度: 43-40N, 经度: 079-38W, 海拔: 173米

当前天气观测

该预报发布于1小时和5分钟前的18:00 UTC
风速9节,风向东北,有时为16节阵风,在北转西北东北之间变化
温度 14°C
湿度 31%
气压 1015 hPa
能見度: 24.1公里
天空无云

METAR: CYYZ 021800Z 04009G16KT 340V050 15SM SKC 14/M03 A2997 RMK SLP152 DENSITY ALT 600FT

时间: 15:05 (19:05 UTC)

预报

该预报发布于1小时和19分钟前的17:46 UTC
预报有效从02日的 18点(UTC)到 03日的 24点(UTC)
风速10节,风向北转西北,有时为20节阵风
能見度: 10公里
少量云层高于5000英尺
短暂存在
从 02日的 18点(UTC)到 02日的 24点(UTC)
风速10节,风向东北,有时为20节阵风
从 03日的 0000点(UTC)
风速12节,风向北转西北
能見度: 10公里
少量云层高于8000英尺
短暂存在
从 03日的 00点(UTC)到 03日的 03点(UTC)
风速8节,风向东北
从 03日的 0300点(UTC)
风速8节,风向北转西北
能見度: 10公里
少量云层高于4000英尺
短暂存在
从 03日的 03点(UTC)到 03日的 09点(UTC)
风速8节,风向东北
从 03日的 0900点(UTC)
风速6节,风向多变
能見度: 10公里
散云层高于1500英尺
从 03日的 1200点(UTC)
风速6节,风向多变
能見度: 10公里
多云层高于1500英尺
从 03日的 1700点(UTC)
风速8节,风向多变
能見度: 10公里
多云层高于2500英尺

TAF: CYYZ 021746Z 0218/0324 33010G20KT P6SM FEW050 TEMPO 0218/0224 04010G20KT FM030000 33012KT P6SM FEW080 TEMPO 0300/0303 04008KT FM030300 33008KT P6SM FEW040 TEMPO 0303/0309 04008KT FM030900 VRB06KT P6SM SCT015 FM031200 VRB06KT P6SM BKN015 FM031700 VRB08KT P6SM BKN025 RMK NXT FCST BY 022100Z

超过4000个机场的气象观测和天气预报(METAR&TAF报告)。

可查询的气象台以黄色和红色小点在地图上表示。

将鼠标移到小点上方,可查看气象台名称。

然后点击查看天气观测和预报。

如需切换地图:点击带黑十字的绿色按钮放大地图;点击带横线的绿色按钮缩小地图;或者点击绿色箭头查看邻近地区的地图。


METAR-TAF: